Federal, Argentina
Current Conditions -  °F | °C
As of 8:00 PM on Wednesday 17 Dec 2014 (Local Time) from SUSO Reporting Station
Few Clouds Few Clouds  
Wind Chill: 81°   Ceiling: Unl
Heat Index: 82°   Visibility: 6mi
Dew Point: 64°   Wind: 5mph
Humidity: 58%   Direction: 230°SW
Pressure: 29.83"   Gusts: NA
Location:  30.95°S, 58.8°W
Report Text: SUSO 172300Z 23004KT 9999 FEW023 27/18 Q1010
Loading
Personal Weather Stations






























Interactive Weather Map New forecast layout! Learn more

10-Day Weather Forecast

Advertisements
Track Severe Weather on mobile